sensor_id;sensor_type;location;lat;lon;timestamp;temperature;humidity
43772;HTU21D;59066;54.782;32.024;2023-02-01T00:00:36;-0.01;88.43
43772;HTU21D;59066;54.782;32.024;2023-02-01T00:03:04;-0.00;88.47
43772;HTU21D;59066;54.782;32.024;2023-02-01T00:05:32;0.03;88.67
43772;HTU21D;59066;54.782;32.024;2023-02-01T00:07:59;0.05;88.15
43772;HTU21D;59066;54.782;32.024;2023-02-01T00:10:27;0.06;88.40
43772;HTU21D;59066;54.782;32.024;2023-02-01T00:12:54;0.10;88.29
43772;HTU21D;59066;54.782;32.024;2023-02-01T00:15:22;0.04;87.89
43772;HTU21D;59066;54.782;32.024;2023-02-01T00:17:54;0.02;87.97
43772;HTU21D;59066;54.782;32.024;2023-02-01T00:20:22;0.01;88.12
43772;HTU21D;59066;54.782;32.024;2023-02-01T00:22:49;-0.01;88.14
43772;HTU21D;59066;54.782;32.024;2023-02-01T00:25:17;0.01;88.13
43772;HTU21D;59066;54.782;32.024;2023-02-01T00:27:49;0.03;88.19
43772;HTU21D;59066;54.782;32.024;2023-02-01T00:30:17;0.06;88.17
43772;HTU21D;59066;54.782;32.024;2023-02-01T00:32:45;0.04;87.80
43772;HTU21D;59066;54.782;32.024;2023-02-01T00:35:13;0.02;88.08
43772;HTU21D;59066;54.782;32.024;2023-02-01T00:37:40;0.03;88.00
43772;HTU21D;59066;54.782;32.024;2023-02-01T00:40:08;0.03;88.05
43772;HTU21D;59066;54.782;32.024;2023-02-01T00:42:36;0.01;88.04
43772;HTU21D;59066;54.782;32.024;2023-02-01T00:45:03;-0.02;87.92
43772;HTU21D;59066;54.782;32.024;2023-02-01T00:47:31;-0.02;87.92
43772;HTU21D;59066;54.782;32.024;2023-02-01T00:49:59;-0.01;88.02
43772;HTU21D;59066;54.782;32.024;2023-02-01T00:52:26;-0.03;87.90
43772;HTU21D;59066;54.782;32.024;2023-02-01T00:54:54;0.01;88.14
43772;HTU21D;59066;54.782;32.024;2023-02-01T00:57:21;-0.01;88.07
43772;HTU21D;59066;54.782;32.024;2023-02-01T00:59:49;-0.00;88.17
43772;HTU21D;59066;54.782;32.024;2023-02-01T01:02:16;0.02;88.21
43772;HTU21D;59066;54.782;32.024;2023-02-01T01:04:43;0.05;88.22
43772;HTU21D;59066;54.782;32.024;2023-02-01T01:07:11;0.03;88.02
43772;HTU21D;59066;54.782;32.024;2023-02-01T01:09:38;0.05;88.23
43772;HTU21D;59066;54.782;32.024;2023-02-01T01:12:06;0.06;88.12
43772;HTU21D;59066;54.782;32.024;2023-02-01T01:14:33;0.12;88.18
43772;HTU21D;59066;54.782;32.024;2023-02-01T01:17:00;0.14;88.41
43772;HTU21D;59066;54.782;32.024;2023-02-01T01:19:28;0.13;88.04
43772;HTU21D;59066;54.782;32.024;2023-02-01T01:21:55;0.14;87.94
43772;HTU21D;59066;54.782;32.024;2023-02-01T01:24:23;0.12;87.75
43772;HTU21D;59066;54.782;32.024;2023-02-01T01:26:50;0.13;88.02
43772;HTU21D;59066;54.782;32.024;2023-02-01T01:29:17;0.12;87.71
43772;HTU21D;59066;54.782;32.024;2023-02-01T01:31:45;0.09;87.91
43772;HTU21D;59066;54.782;32.024;2023-02-01T01:34:12;0.14;87.90
43772;HTU21D;59066;54.782;32.024;2023-02-01T01:36:40;0.09;87.61
43772;HTU21D;59066;54.782;32.024;2023-02-01T01:39:07;0.09;87.84
43772;HTU21D;59066;54.782;32.024;2023-02-01T01:41:35;0.09;87.90
43772;HTU21D;59066;54.782;32.024;2023-02-01T01:47:19;0.09;87.92
43772;HTU21D;59066;54.782;32.024;2023-02-01T01:49:49;0.06;87.72
43772;HTU21D;59066;54.782;32.024;2023-02-01T01:52:18;0.05;87.98
43772;HTU21D;59066;54.782;32.024;2023-02-01T01:54:48;0.06;87.89
43772;HTU21D;59066;54.782;32.024;2023-02-01T01:57:23;0.10;88.09
43772;HTU21D;59066;54.782;32.024;2023-02-01T02:00:05;0.17;88.15
43772;HTU21D;59066;54.782;32.024;2023-02-01T02:02:46;0.20;88.26
43772;HTU21D;59066;54.782;32.024;2023-02-01T02:05:15;0.18;87.76
43772;HTU21D;59066;54.782;32.024;2023-02-01T02:07:46;0.16;87.92
43772;HTU21D;59066;54.782;32.024;2023-02-01T02:10:15;0.18;87.80
43772;HTU21D;59066;54.782;32.024;2023-02-01T02:12:46;0.18;87.73
43772;HTU21D;59066;54.782;32.024;2023-02-01T02:15:15;0.22;87.94
43772;HTU21D;59066;54.782;32.024;2023-02-01T02:18:07;0.21;87.64
43772;HTU21D;59066;54.782;32.024;2023-02-01T02:23:35;0.17;87.55
43772;HTU21D;59066;54.782;32.024;2023-02-01T02:31:50;0.12;87.66
43772;HTU21D;59066;54.782;32.024;2023-02-01T02:40:04;0.08;87.80
43772;HTU21D;59066;54.782;32.024;2023-02-01T02:42:41;0.10;87.70
43772;HTU21D;59066;54.782;32.024;2023-02-01T02:48:48;0.09;87.80
43772;HTU21D;59066;54.782;32.024;2023-02-01T02:51:29;0.07;87.67
43772;HTU21D;59066;54.782;32.024;2023-02-01T02:54:19;0.07;87.93
43772;HTU21D;59066;54.782;32.024;2023-02-01T02:57:09;0.04;87.65
43772;HTU21D;59066;54.782;32.024;2023-02-01T03:00:00;0.02;87.83
43772;HTU21D;59066;54.782;32.024;2023-02-01T03:02:48;-0.05;87.85
43772;HTU21D;59066;54.782;32.024;2023-02-01T03:05:36;-0.03;88.12
43772;HTU21D;59066;54.782;32.024;2023-02-01T03:16:24;-0.02;87.80
43772;HTU21D;59066;54.782;32.024;2023-02-01T03:19:19;0.02;88.23
43772;HTU21D;59066;54.782;32.024;2023-02-01T03:22:04;0.01;87.89
43772;HTU21D;59066;54.782;32.024;2023-02-01T03:24:40;-0.02;88.22
43772;HTU21D;59066;54.782;32.024;2023-02-01T03:29:49;-0.06;88.09
43772;HTU21D;59066;54.782;32.024;2023-02-01T03:32:18;-0.10;88.02
43772;HTU21D;59066;54.782;32.024;2023-02-01T03:34:47;-0.02;88.41
43772;HTU21D;59066;54.782;32.024;2023-02-01T03:37:36;-0.06;88.24
43772;HTU21D;59066;54.782;32.024;2023-02-01T03:40:07;-0.07;88.14
43772;HTU21D;59066;54.782;32.024;2023-02-01T03:42:42;-0.06;88.15
43772;HTU21D;59066;54.782;32.024;2023-02-01T03:45:16;-0.11;87.93
43772;HTU21D;59066;54.782;32.024;2023-02-01T03:47:49;-0.15;88.09
43772;HTU21D;59066;54.782;32.024;2023-02-01T03:50:20;-0.11;88.47
43772;HTU21D;59066;54.782;32.024;2023-02-01T03:52:55;-0.14;88.12
43772;HTU21D;59066;54.782;32.024;2023-02-01T03:55:25;-0.14;88.26
43772;HTU21D;59066;54.782;32.024;2023-02-01T03:58:03;-0.21;88.15
43772;HTU21D;59066;54.782;32.024;2023-02-01T04:00:33;-0.24;88.07
43772;HTU21D;59066;54.782;32.024;2023-02-01T04:03:04;-0.24;88.41
43772;HTU21D;59066;54.782;32.024;2023-02-01T04:05:32;-0.24;88.35
43772;HTU21D;59066;54.782;32.024;2023-02-01T04:08:03;-0.28;88.55
43772;HTU21D;59066;54.782;32.024;2023-02-01T04:10:33;-0.29;88.52
43772;HTU21D;59066;54.782;32.024;2023-02-01T04:13:00;-0.29;88.60
43772;HTU21D;59066;54.782;32.024;2023-02-01T04:15:28;-0.32;88.56
43772;HTU21D;59066;54.782;32.024;2023-02-01T04:17:55;-0.32;88.76
43772;HTU21D;59066;54.782;32.024;2023-02-01T04:20:22;-0.30;88.84
43772;HTU21D;59066;54.782;32.024;2023-02-01T04:22:50;-0.30;88.86
43772;HTU21D;59066;54.782;32.024;2023-02-01T04:25:18;-0.27;88.96
43772;HTU21D;59066;54.782;32.024;2023-02-01T04:27:46;-0.26;88.80
43772;HTU21D;59066;54.782;32.024;2023-02-01T04:30:14;-0.27;88.70
43772;HTU21D;59066;54.782;32.024;2023-02-01T04:32:41;-0.23;88.99
43772;HTU21D;59066;54.782;32.024;2023-02-01T04:35:09;-0.19;89.00
43772;HTU21D;59066;54.782;32.024;2023-02-01T04:37:36;-0.20;88.74
43772;HTU21D;59066;54.782;32.024;2023-02-01T04:40:06;-0.19;88.82
43772;HTU21D;59066;54.782;32.024;2023-02-01T04:42:33;-0.16;88.70
43772;HTU21D;59066;54.782;32.024;2023-02-01T04:45:02;-0.17;88.63
43772;HTU21D;59066;54.782;32.024;2023-02-01T04:47:30;-0.19;88.74
43772;HTU21D;59066;54.782;32.024;2023-02-01T04:49:58;-0.22;88.56
43772;HTU21D;59066;54.782;32.024;2023-02-01T04:52:26;-0.22;88.78
43772;HTU21D;59066;54.782;32.024;2023-02-01T04:54:54;-0.26;88.72
43772;HTU21D;59066;54.782;32.024;2023-02-01T04:57:25;-0.22;89.07
43772;HTU21D;59066;54.782;32.024;2023-02-01T04:59:53;-0.21;89.27
43772;HTU21D;59066;54.782;32.024;2023-02-01T05:02:20;-0.19;89.03
43772;HTU21D;59066;54.782;32.024;2023-02-01T05:04:48;-0.15;89.20
43772;HTU21D;59066;54.782;32.024;2023-02-01T05:07:16;-0.19;88.87
43772;HTU21D;59066;54.782;32.024;2023-02-01T05:09:43;-0.14;88.84
43772;HTU21D;59066;54.782;32.024;2023-02-01T05:12:10;-0.17;89.06
43772;HTU21D;59066;54.782;32.024;2023-02-01T05:14:56;-0.17;89.14
43772;HTU21D;59066;54.782;32.024;2023-02-01T05:17:24;-0.13;89.28
43772;HTU21D;59066;54.782;32.024;2023-02-01T05:19:54;-0.07;89.17
43772;HTU21D;59066;54.782;32.024;2023-02-01T05:22:21;-0.07;89.05
43772;HTU21D;59066;54.782;32.024;2023-02-01T05:24:49;-0.08;88.98
43772;HTU21D;59066;54.782;32.024;2023-02-01T05:27:16;-0.08;89.09
43772;HTU21D;59066;54.782;32.024;2023-02-01T05:29:43;0.03;89.29
43772;HTU21D;59066;54.782;32.024;2023-02-01T05:32:13;0.02;89.06
43772;HTU21D;59066;54.782;32.024;2023-02-01T05:34:49;0.04;88.96
43772;HTU21D;59066;54.782;32.024;2023-02-01T05:37:16;0.10;88.86
43772;HTU21D;59066;54.782;32.024;2023-02-01T05:39:44;0.04;88.73
43772;HTU21D;59066;54.782;32.024;2023-02-01T05:42:12;0.05;88.79
43772;HTU21D;59066;54.782;32.024;2023-02-01T05:44:40;0.06;88.56
43772;HTU21D;59066;54.782;32.024;2023-02-01T05:47:09;-0.00;88.76
43772;HTU21D;59066;54.782;32.024;2023-02-01T05:49:39;0.04;88.54
43772;HTU21D;59066;54.782;32.024;2023-02-01T05:52:06;0.04;88.88
43772;HTU21D;59066;54.782;32.024;2023-02-01T05:54:34;0.01;88.67
43772;HTU21D;59066;54.782;32.024;2023-02-01T05:57:01;-0.01;88.52
43772;HTU21D;59066;54.782;32.024;2023-02-01T05:59:30;-0.03;88.70
43772;HTU21D;59066;54.782;32.024;2023-02-01T06:01:57;-0.02;88.80
43772;HTU21D;59066;54.782;32.024;2023-02-01T06:04:26;-0.09;88.57
43772;HTU21D;59066;54.782;32.024;2023-02-01T06:06:53;-0.03;88.88
43772;HTU21D;59066;54.782;32.024;2023-02-01T06:09:21;-0.07;88.88
43772;HTU21D;59066;54.782;32.024;2023-02-01T06:11:50;-0.01;88.92
43772;HTU21D;59066;54.782;32.024;2023-02-01T06:14:17;0.01;88.83
43772;HTU21D;59066;54.782;32.024;2023-02-01T06:16:44;-0.05;88.68
43772;HTU21D;59066;54.782;32.024;2023-02-01T06:19:13;-0.07;88.57
43772;HTU21D;59066;54.782;32.024;2023-02-01T06:21:42;-0.03;88.90
43772;HTU21D;59066;54.782;32.024;2023-02-01T06:24:09;-0.01;88.91
43772;HTU21D;59066;54.782;32.024;2023-02-01T06:26:37;0.03;88.92
43772;HTU21D;59066;54.782;32.024;2023-02-01T06:29:07;0.07;89.11
43772;HTU21D;59066;54.782;32.024;2023-02-01T06:31:34;-0.03;88.41
43772;HTU21D;59066;54.782;32.024;2023-02-01T06:34:03;-0.05;88.99
43772;HTU21D;59066;54.782;32.024;2023-02-01T06:36:30;0.02;89.16
43772;HTU21D;59066;54.782;32.024;2023-02-01T06:38:57;0.12;89.03
43772;HTU21D;59066;54.782;32.024;2023-02-01T06:41:29;0.18;88.89
43772;HTU21D;59066;54.782;32.024;2023-02-01T06:43:59;0.20;88.76
43772;HTU21D;59066;54.782;32.024;2023-02-01T06:46:26;0.22;88.62
43772;HTU21D;59066;54.782;32.024;2023-02-01T06:48:54;0.17;88.38
43772;HTU21D;59066;54.782;32.024;2023-02-01T06:51:26;0.25;88.82
43772;HTU21D;59066;54.782;32.024;2023-02-01T06:53:54;0.34;88.74
43772;HTU21D;59066;54.782;32.024;2023-02-01T06:56:21;0.34;88.18
43772;HTU21D;59066;54.782;32.024;2023-02-01T06:58:49;0.32;88.17
43772;HTU21D;59066;54.782;32.024;2023-02-01T07:01:17;0.32;88.12
43772;HTU21D;59066;54.782;32.024;2023-02-01T07:03:49;0.34;87.89
43772;HTU21D;59066;54.782;32.024;2023-02-01T07:06:20;0.42;88.14
43772;HTU21D;59066;54.782;32.024;2023-02-01T07:08:47;0.39;87.40
43772;HTU21D;59066;54.782;32.024;2023-02-01T07:11:17;0.31;87.58
43772;HTU21D;59066;54.782;32.024;2023-02-01T07:13:45;0.36;87.80
43772;HTU21D;59066;54.782;32.024;2023-02-01T07:16:15;0.37;87.89
43772;HTU21D;59066;54.782;32.024;2023-02-01T07:18:43;0.39;87.62
43772;HTU21D;59066;54.782;32.024;2023-02-01T07:21:11;0.34;87.42
43772;HTU21D;59066;54.782;32.024;2023-02-01T07:23:39;0.37;87.45
43772;HTU21D;59066;54.782;32.024;2023-02-01T07:26:10;0.39;87.40
43772;HTU21D;59066;54.782;32.024;2023-02-01T07:28:40;0.39;87.24
43772;HTU21D;59066;54.782;32.024;2023-02-01T07:31:13;0.42;87.22
43772;HTU21D;59066;54.782;32.024;2023-02-01T07:33:43;0.42;86.85
43772;HTU21D;59066;54.782;32.024;2023-02-01T07:36:12;0.44;86.95
43772;HTU21D;59066;54.782;32.024;2023-02-01T07:38:41;0.48;86.91
43772;HTU21D;59066;54.782;32.024;2023-02-01T07:41:10;0.61;87.18
43772;HTU21D;59066;54.782;32.024;2023-02-01T07:43:37;0.64;86.51
43772;HTU21D;59066;54.782;32.024;2023-02-01T07:46:06;0.62;86.25
43772;HTU21D;59066;54.782;32.024;2023-02-01T07:48:34;0.69;86.15
43772;HTU21D;59066;54.782;32.024;2023-02-01T07:51:06;0.80;86.13
43772;HTU21D;59066;54.782;32.024;2023-02-01T07:53:35;0.78;85.84
43772;HTU21D;59066;54.782;32.024;2023-02-01T07:56:11;0.87;85.47
43772;HTU21D;59066;54.782;32.024;2023-02-01T07:58:39;0.82;84.77
43772;HTU21D;59066;54.782;32.024;2023-02-01T08:01:14;0.76;84.58
43772;HTU21D;59066;54.782;32.024;2023-02-01T08:03:49;0.86;84.93
43772;HTU21D;59066;54.782;32.024;2023-02-01T08:06:17;0.94;84.68
43772;HTU21D;59066;54.782;32.024;2023-02-01T08:08:48;0.98;84.21
43772;HTU21D;59066;54.782;32.024;2023-02-01T08:11:17;1.02;84.11
43772;HTU21D;59066;54.782;32.024;2023-02-01T08:13:45;0.97;83.54
43772;HTU21D;59066;54.782;32.024;2023-02-01T08:16:14;1.11;83.99
43772;HTU21D;59066;54.782;32.024;2023-02-01T08:18:45;1.25;83.78
43772;HTU21D;59066;54.782;32.024;2023-02-01T08:21:22;1.21;82.73
43772;HTU21D;59066;54.782;32.024;2023-02-01T08:23:50;1.17;82.48
43772;HTU21D;59066;54.782;32.024;2023-02-01T08:26:25;1.19;82.46
43772;HTU21D;59066;54.782;32.024;2023-02-01T08:28:58;1.26;82.35
43772;HTU21D;59066;54.782;32.024;2023-02-01T08:31:28;1.26;82.07
43772;HTU21D;59066;54.782;32.024;2023-02-01T08:33:58;1.33;82.12
43772;HTU21D;59066;54.782;32.024;2023-02-01T08:36:27;1.37;81.99
43772;HTU21D;59066;54.782;32.024;2023-02-01T08:38:56;1.39;81.66
43772;HTU21D;59066;54.782;32.024;2023-02-01T08:41:26;1.36;81.68
43772;HTU21D;59066;54.782;32.024;2023-02-01T08:43:55;1.50;81.97
43772;HTU21D;59066;54.782;32.024;2023-02-01T08:46:23;1.57;81.76
43772;HTU21D;59066;54.782;32.024;2023-02-01T08:48:51;1.69;81.75
43772;HTU21D;59066;54.782;32.024;2023-02-01T08:51:20;1.69;80.68
43772;HTU21D;59066;54.782;32.024;2023-02-01T08:53:48;1.68;80.30
43772;HTU21D;59066;54.782;32.024;2023-02-01T08:56:17;1.66;80.11
43772;HTU21D;59066;54.782;32.024;2023-02-01T08:58:45;1.66;79.91
43772;HTU21D;59066;54.782;32.024;2023-02-01T09:01:15;1.76;79.92
43772;HTU21D;59066;54.782;32.024;2023-02-01T09:03:44;1.88;79.88
43772;HTU21D;59066;54.782;32.024;2023-02-01T09:06:14;1.90;78.95
43772;HTU21D;59066;54.782;32.024;2023-02-01T09:08:42;1.91;78.68
43772;HTU21D;59066;54.782;32.024;2023-02-01T09:11:15;1.88;78.09
43772;HTU21D;59066;54.782;32.024;2023-02-01T09:13:43;1.97;78.40
43772;HTU21D;59066;54.782;32.024;2023-02-01T09:16:11;2.00;77.73
43772;HTU21D;59066;54.782;32.024;2023-02-01T09:18:39;2.06;77.62
43772;HTU21D;59066;54.782;32.024;2023-02-01T09:21:11;2.17;77.60
43772;HTU21D;59066;54.782;32.024;2023-02-01T09:23:39;2.37;77.83
43772;HTU21D;59066;54.782;32.024;2023-02-01T09:26:06;2.54;77.52
43772;HTU21D;59066;54.782;32.024;2023-02-01T09:28:34;2.59;76.90
43772;HTU21D;59066;54.782;32.024;2023-02-01T09:31:02;2.61;75.78
43772;HTU21D;59066;54.782;32.024;2023-02-01T09:33:29;2.69;75.86
43772;HTU21D;59066;54.782;32.024;2023-02-01T09:35:58;2.82;76.08
43772;HTU21D;59066;54.782;32.024;2023-02-01T09:38:26;2.72;74.60
43772;HTU21D;59066;54.782;32.024;2023-02-01T09:40:55;2.78;74.65
43772;HTU21D;59066;54.782;32.024;2023-02-01T09:49:04;2.76;73.71
43772;HTU21D;59066;54.782;32.024;2023-02-01T09:51:37;2.79;73.56
43772;HTU21D;59066;54.782;32.024;2023-02-01T09:54:11;2.81;73.20
43772;HTU21D;59066;54.782;32.024;2023-02-01T09:57:08;2.90;73.70
43772;HTU21D;59066;54.782;32.024;2023-02-01T09:59:54;2.88;72.70
43772;HTU21D;59066;54.782;32.024;2023-02-01T10:02:26;2.95;73.12
43772;HTU21D;59066;54.782;32.024;2023-02-01T10:04:55;3.04;73.37
43772;HTU21D;59066;54.782;32.024;2023-02-01T10:07:46;3.00;72.29
43772;HTU21D;59066;54.782;32.024;2023-02-01T10:10:39;3.10;73.17
43772;HTU21D;59066;54.782;32.024;2023-02-01T10:16:25;3.28;72.70
43772;HTU21D;59066;54.782;32.024;2023-02-01T10:22:02;3.16;71.10
43772;HTU21D;59066;54.782;32.024;2023-02-01T10:27:47;3.42;71.90
43772;HTU21D;59066;54.782;32.024;2023-02-01T10:30:25;3.56;71.05
43772;HTU21D;59066;54.782;32.024;2023-02-01T10:33:20;3.60;69.91
43772;HTU21D;59066;54.782;32.024;2023-02-01T10:35:55;3.60;68.94
43772;HTU21D;59066;54.782;32.024;2023-02-01T10:38:29;3.65;69.52
43772;HTU21D;59066;54.782;32.024;2023-02-01T10:41:04;3.69;68.89
43772;HTU21D;59066;54.782;32.024;2023-02-01T10:43:36;3.82;69.90
43772;HTU21D;59066;54.782;32.024;2023-02-01T10:46:04;3.88;69.35
43772;HTU21D;59066;54.782;32.024;2023-02-01T10:48:32;3.84;68.84
43772;HTU21D;59066;54.782;32.024;2023-02-01T10:53:58;3.71;68.61
43772;HTU21D;59066;54.782;32.024;2023-02-01T10:56:27;3.68;67.68
43772;HTU21D;59066;54.782;32.024;2023-02-01T10:59:06;3.67;68.36
43772;HTU21D;59066;54.782;32.024;2023-02-01T11:01:39;3.75;68.28
43772;HTU21D;59066;54.782;32.024;2023-02-01T11:04:11;3.85;67.78
43772;HTU21D;59066;54.782;32.024;2023-02-01T11:06:45;3.67;66.89
43772;HTU21D;59066;54.782;32.024;2023-02-01T11:09:19;3.67;67.39
43772;HTU21D;59066;54.782;32.024;2023-02-01T11:19:47;3.76;67.59
43772;HTU21D;59066;54.782;32.024;2023-02-01T11:22:25;3.69;66.81
43772;HTU21D;59066;54.782;32.024;2023-02-01T11:24:54;3.62;66.56
43772;HTU21D;59066;54.782;32.024;2023-02-01T11:27:23;3.46;65.53
43772;HTU21D;59066;54.782;32.024;2023-02-01T11:29:59;3.41;65.59
43772;HTU21D;59066;54.782;32.024;2023-02-01T11:32:30;3.34;64.79
43772;HTU21D;59066;54.782;32.024;2023-02-01T11:35:01;3.38;65.54
43772;HTU21D;59066;54.782;32.024;2023-02-01T11:40:03;3.58;65.24
43772;HTU21D;59066;54.782;32.024;2023-02-01T11:42:33;3.63;65.46
43772;HTU21D;59066;54.782;32.024;2023-02-01T11:45:20;3.77;64.88
43772;HTU21D;59066;54.782;32.024;2023-02-01T11:47:51;3.75;64.06
43772;HTU21D;59066;54.782;32.024;2023-02-01T11:50:28;3.79;64.37
43772;HTU21D;59066;54.782;32.024;2023-02-01T12:04:16;4.14;63.01
43772;HTU21D;59066;54.782;32.024;2023-02-01T12:06:54;4.31;62.86
43772;HTU21D;59066;54.782;32.024;2023-02-01T12:09:39;4.41;63.03
43772;HTU21D;59066;54.782;32.024;2023-02-01T12:23:06;4.80;60.52
43772;HTU21D;59066;54.782;32.024;2023-02-01T12:25:58;4.98;59.44
43772;HTU21D;59066;54.782;32.024;2023-02-01T12:31:46;5.12;58.51
43772;HTU21D;59066;54.782;32.024;2023-02-01T12:37:13;4.53;60.05
43772;HTU21D;59066;54.782;32.024;2023-02-01T12:48:25;4.01;59.25
43772;HTU21D;59066;54.782;32.024;2023-02-01T12:50:56;4.10;59.47
43772;HTU21D;59066;54.782;32.024;2023-02-01T12:53:42;4.31;59.61
43772;HTU21D;59066;54.782;32.024;2023-02-01T12:56:22;4.37;58.67
43772;HTU21D;59066;54.782;32.024;2023-02-01T12:58:53;4.33;58.22
43772;HTU21D;59066;54.782;32.024;2023-02-01T13:01:45;4.28;58.03
43772;HTU21D;59066;54.782;32.024;2023-02-01T13:04:24;4.44;58.32
43772;HTU21D;59066;54.782;32.024;2023-02-01T13:07:14;4.62;57.16
43772;HTU21D;59066;54.782;32.024;2023-02-01T13:09:52;4.81;57.22
43772;HTU21D;59066;54.782;32.024;2023-02-01T13:12:26;4.97;57.51
43772;HTU21D;59066;54.782;32.024;2023-02-01T13:15:20;4.82;57.39
43772;HTU21D;59066;54.782;32.024;2023-02-01T13:17:51;4.76;58.93
43772;HTU21D;59066;54.782;32.024;2023-02-01T13:25:37;3.98;59.09
43772;HTU21D;59066;54.782;32.024;2023-02-01T13:28:14;3.73;59.85
43772;HTU21D;59066;54.782;32.024;2023-02-01T13:31:03;3.60;59.84
43772;HTU21D;59066;54.782;32.024;2023-02-01T13:36:48;3.38;60.39
43772;HTU21D;59066;54.782;32.024;2023-02-01T13:39:41;3.08;61.34
43772;HTU21D;59066;54.782;32.024;2023-02-01T13:42:31;2.96;61.57
43772;HTU21D;59066;54.782;32.024;2023-02-01T13:45:05;2.76;62.40
43772;HTU21D;59066;54.782;32.024;2023-02-01T13:47:42;2.64;62.92
43772;HTU21D;59066;54.782;32.024;2023-02-01T13:50:23;2.58;62.69
43772;HTU21D;59066;54.782;32.024;2023-02-01T13:55:57;2.35;63.50
43772;HTU21D;59066;54.782;32.024;2023-02-01T13:58:42;2.28;63.70
43772;HTU21D;59066;54.782;32.024;2023-02-01T14:03:58;2.08;64.40
43772;HTU21D;59066;54.782;32.024;2023-02-01T14:09:32;1.87;65.59
43772;HTU21D;59066;54.782;32.024;2023-02-01T14:15:20;1.75;65.24
43772;HTU21D;59066;54.782;32.024;2023-02-01T14:17:49;1.67;65.94
43772;HTU21D;59066;54.782;32.024;2023-02-01T14:23:13;1.54;66.68
43772;HTU21D;59066;54.782;32.024;2023-02-01T14:25:42;1.49;66.83
43772;HTU21D;59066;54.782;32.024;2023-02-01T14:28:25;1.42;66.88
43772;HTU21D;59066;54.782;32.024;2023-02-01T14:30:56;1.36;67.23
43772;HTU21D;59066;54.782;32.024;2023-02-01T14:33:26;1.34;67.21
43772;HTU21D;59066;54.782;32.024;2023-02-01T14:36:12;1.24;68.11
43772;HTU21D;59066;54.782;32.024;2023-02-01T14:38:49;1.21;68.15
43772;HTU21D;59066;54.782;32.024;2023-02-01T14:41:32;1.17;68.57
43772;HTU21D;59066;54.782;32.024;2023-02-01T14:49:31;1.05;69.13
43772;HTU21D;59066;54.782;32.024;2023-02-01T14:52:04;1.02;68.75
43772;HTU21D;59066;54.782;32.024;2023-02-01T14:54:33;0.99;68.62
43772;HTU21D;59066;54.782;32.024;2023-02-01T14:57:01;0.97;68.55
43772;HTU21D;59066;54.782;32.024;2023-02-01T14:59:30;0.92;69.26
43772;HTU21D;59066;54.782;32.024;2023-02-01T15:02:00;0.94;69.12
43772;HTU21D;59066;54.782;32.024;2023-02-01T15:04:28;0.91;69.44
43772;HTU21D;59066;54.782;32.024;2023-02-01T15:07:12;0.84;69.82
43772;HTU21D;59066;54.782;32.024;2023-02-01T15:09:46;0.81;69.84
43772;HTU21D;59066;54.782;32.024;2023-02-01T15:12:28;0.82;69.79
43772;HTU21D;59066;54.782;32.024;2023-02-01T15:15:18;0.78;69.90
43772;HTU21D;59066;54.782;32.024;2023-02-01T15:17:53;0.76;69.94
43772;HTU21D;59066;54.782;32.024;2023-02-01T15:20:27;0.66;70.48
43772;HTU21D;59066;54.782;32.024;2023-02-01T15:23:00;0.63;70.55
43772;HTU21D;59066;54.782;32.024;2023-02-01T15:25:34;0.60;70.91
43772;HTU21D;59066;54.782;32.024;2023-02-01T15:28:13;0.57;71.12
43772;HTU21D;59066;54.782;32.024;2023-02-01T15:31:09;0.57;71.03
43772;HTU21D;59066;54.782;32.024;2023-02-01T15:33:39;0.48;71.15
43772;HTU21D;59066;54.782;32.024;2023-02-01T15:38:40;0.46;71.19
43772;HTU21D;59066;54.782;32.024;2023-02-01T15:41:10;0.40;71.58
43772;HTU21D;59066;54.782;32.024;2023-02-01T15:43:47;0.38;71.55
43772;HTU21D;59066;54.782;32.024;2023-02-01T15:46:22;0.38;71.56
43772;HTU21D;59066;54.782;32.024;2023-02-01T15:48:52;0.34;71.88
43772;HTU21D;59066;54.782;32.024;2023-02-01T15:51:23;0.30;71.96
43772;HTU21D;59066;54.782;32.024;2023-02-01T15:54:01;0.31;71.99
43772;HTU21D;59066;54.782;32.024;2023-02-01T15:56:37;0.32;72.06
43772;HTU21D;59066;54.782;32.024;2023-02-01T15:59:16;0.29;72.04
43772;HTU21D;59066;54.782;32.024;2023-02-01T16:01:44;0.27;72.06
43772;HTU21D;59066;54.782;32.024;2023-02-01T16:04:23;0.28;72.37
43772;HTU21D;59066;54.782;32.024;2023-02-01T16:06:58;0.31;72.17
43772;HTU21D;59066;54.782;32.024;2023-02-01T16:09:39;0.28;72.72
43772;HTU21D;59066;54.782;32.024;2023-02-01T16:12:28;0.31;72.64
43772;HTU21D;59066;54.782;32.024;2023-02-01T16:14:58;0.30;72.77
43772;HTU21D;59066;54.782;32.024;2023-02-01T16:17:25;0.31;72.68
43772;HTU21D;59066;54.782;32.024;2023-02-01T16:19:53;0.31;73.03
43772;HTU21D;59066;54.782;32.024;2023-02-01T16:22:21;0.33;72.98
43772;HTU21D;59066;54.782;32.024;2023-02-01T16:24:49;0.34;73.13
43772;HTU21D;59066;54.782;32.024;2023-02-01T16:27:17;0.38;73.09
43772;HTU21D;59066;54.782;32.024;2023-02-01T16:29:44;0.42;72.92
43772;HTU21D;59066;54.782;32.024;2023-02-01T16:32:21;0.45;72.83
43772;HTU21D;59066;54.782;32.024;2023-02-01T16:34:49;0.48;72.97
43772;HTU21D;59066;54.782;32.024;2023-02-01T16:37:23;0.50;73.19
43772;HTU21D;59066;54.782;32.024;2023-02-01T16:39:50;0.51;73.20
43772;HTU21D;59066;54.782;32.024;2023-02-01T16:42:18;0.50;73.41
43772;HTU21D;59066;54.782;32.024;2023-02-01T16:44:45;0.43;73.79
43772;HTU21D;59066;54.782;32.024;2023-02-01T16:47:18;0.47;74.02
43772;HTU21D;59066;54.782;32.024;2023-02-01T16:49:49;0.43;74.06
43772;HTU21D;59066;54.782;32.024;2023-02-01T16:52:19;0.38;74.56
43772;HTU21D;59066;54.782;32.024;2023-02-01T16:54:48;0.40;74.86
43772;HTU21D;59066;54.782;32.024;2023-02-01T16:57:17;0.37;75.00
43772;HTU21D;59066;54.782;32.024;2023-02-01T16:59:45;0.38;75.08
43772;HTU21D;59066;54.782;32.024;2023-02-01T17:02:18;0.40;75.09
43772;HTU21D;59066;54.782;32.024;2023-02-01T17:04:49;0.38;75.34
43772;HTU21D;59066;54.782;32.024;2023-02-01T17:07:18;0.42;75.52
43772;HTU21D;59066;54.782;32.024;2023-02-01T17:09:46;0.43;75.50
43772;HTU21D;59066;54.782;32.024;2023-02-01T17:12:27;0.39;75.79
43772;HTU21D;59066;54.782;32.024;2023-02-01T17:14:59;0.42;75.99
43772;HTU21D;59066;54.782;32.024;2023-02-01T17:17:32;0.36;76.14
43772;HTU21D;59066;54.782;32.024;2023-02-01T17:20:05;0.38;76.60
43772;HTU21D;59066;54.782;32.024;2023-02-01T17:22:33;0.34;76.64
43772;HTU21D;59066;54.782;32.024;2023-02-01T17:25:01;0.35;76.80
43772;HTU21D;59066;54.782;32.024;2023-02-01T17:27:28;0.32;77.17
43772;HTU21D;59066;54.782;32.024;2023-02-01T17:29:56;0.31;77.24
43772;HTU21D;59066;54.782;32.024;2023-02-01T17:32:24;0.32;77.32
43772;HTU21D;59066;54.782;32.024;2023-02-01T17:34:52;0.27;77.93
43772;HTU21D;59066;54.782;32.024;2023-02-01T17:37:29;0.31;77.73
43772;HTU21D;59066;54.782;32.024;2023-02-01T17:39:57;0.31;77.79
43772;HTU21D;59066;54.782;32.024;2023-02-01T17:42:27;0.31;77.85
43772;HTU21D;59066;54.782;32.024;2023-02-01T17:44:57;0.31;78.03
43772;HTU21D;59066;54.782;32.024;2023-02-01T17:47:26;0.31;78.00
43772;HTU21D;59066;54.782;32.024;2023-02-01T17:49:53;0.27;78.31